sensor_id;sensor_type;location;lat;lon;timestamp;pressure;altitude;pressure_sealevel;temperature;humidity
70544;BME280;58097;48.364;-1.224;2023-03-16T00:02:04;99404.69;;;10.15;85.43
70544;BME280;58097;48.364;-1.224;2023-03-16T00:04:29;99402.09;;;10.14;85.41
70544;BME280;58097;48.364;-1.224;2023-03-16T00:06:56;99396.00;;;10.10;85.41
70544;BME280;58097;48.364;-1.224;2023-03-16T00:09:21;99397.22;;;10.08;86.41
70544;BME280;58097;48.364;-1.224;2023-03-16T00:11:46;99391.53;;;10.09;85.52
70544;BME280;58097;48.364;-1.224;2023-03-16T00:14:12;99384.66;;;10.13;85.20
70544;BME280;58097;48.364;-1.224;2023-03-16T00:16:37;99387.06;;;10.16;85.33
70544;BME280;58097;48.364;-1.224;2023-03-16T00:19:03;99380.53;;;10.17;85.74
70544;BME280;58097;48.364;-1.224;2023-03-16T00:21:30;99373.78;;;10.20;86.15
70544;BME280;58097;48.364;-1.224;2023-03-16T00:23:56;99379.16;;;10.21;86.31
70544;BME280;58097;48.364;-1.224;2023-03-16T00:26:22;99375.16;;;10.16;86.87
70544;BME280;58097;48.364;-1.224;2023-03-16T00:28:47;99369.81;;;10.14;85.90
70544;BME280;58097;48.364;-1.224;2023-03-16T00:31:13;99363.91;;;10.09;85.29
70544;BME280;58097;48.364;-1.224;2023-03-16T00:33:40;99366.34;;;10.04;85.30
70544;BME280;58097;48.364;-1.224;2023-03-16T00:36:07;99359.44;;;10.00;85.55
70544;BME280;58097;48.364;-1.224;2023-03-16T00:38:42;99361.84;;;9.95;86.05
70544;BME280;58097;48.364;-1.224;2023-03-16T00:41:13;99361.84;;;9.95;85.95
70544;BME280;58097;48.364;-1.224;2023-03-16T00:43:40;99349.25;;;9.92;86.25
70544;BME280;58097;48.364;-1.224;2023-03-16T00:46:11;99350.63;;;9.88;86.38
70544;BME280;58097;48.364;-1.224;2023-03-16T00:48:38;99354.25;;;9.89;85.38
70544;BME280;58097;48.364;-1.224;2023-03-16T00:51:08;99348.91;;;9.87;85.45
70544;BME280;58097;48.364;-1.224;2023-03-16T00:53:34;99354.25;;;9.89;85.48
70544;BME280;58097;48.364;-1.224;2023-03-16T00:56:01;99343.91;;;9.91;86.20
70544;BME280;58097;48.364;-1.224;2023-03-16T00:58:29;99345.63;;;9.84;86.34
70544;BME280;58097;48.364;-1.224;2023-03-16T01:00:54;99333.75;;;9.83;86.21
70544;BME280;58097;48.364;-1.224;2023-03-16T01:03:21;99335.78;;;9.81;87.29
70544;BME280;58097;48.364;-1.224;2023-03-16T01:05:47;99326.47;;;9.82;86.63
70544;BME280;58097;48.364;-1.224;2023-03-16T01:08:13;99332.16;;;9.81;86.29
70544;BME280;58097;48.364;-1.224;2023-03-16T01:10:38;99323.88;;;9.81;85.94
70544;BME280;58097;48.364;-1.224;2023-03-16T01:13:05;99326.47;;;9.82;85.99
70544;BME280;58097;48.364;-1.224;2023-03-16T01:15:32;99317.31;;;9.82;86.32
70544;BME280;58097;48.364;-1.224;2023-03-16T01:17:59;99315.97;;;9.86;86.69
70544;BME280;58097;48.364;-1.224;2023-03-16T01:20:24;99316.66;;;9.88;86.93
70544;BME280;58097;48.364;-1.224;2023-03-16T01:22:50;99316.50;;;9.89;86.93
70544;BME280;58097;48.364;-1.224;2023-03-16T01:25:16;99311.31;;;9.94;86.68
70544;BME280;58097;48.364;-1.224;2023-03-16T01:27:43;99308.19;;;9.98;86.29
70544;BME280;58097;48.364;-1.224;2023-03-16T01:30:09;99312.69;;;9.99;86.67
70544;BME280;58097;48.364;-1.224;2023-03-16T01:32:36;99307.34;;;9.97;86.17
70544;BME280;58097;48.364;-1.224;2023-03-16T01:35:02;99310.44;;;9.94;85.75
70544;BME280;58097;48.364;-1.224;2023-03-16T01:37:29;99310.78;;;9.91;86.01
70544;BME280;58097;48.364;-1.224;2023-03-16T01:39:55;99313.91;;;9.88;85.47
70544;BME280;58097;48.364;-1.224;2023-03-16T01:42:21;99309.25;;;9.88;85.89
70544;BME280;58097;48.364;-1.224;2023-03-16T01:44:54;99298.38;;;9.87;85.47
70544;BME280;58097;48.364;-1.224;2023-03-16T01:47:21;99296.47;;;9.87;85.48
70544;BME280;58097;48.364;-1.224;2023-03-16T01:49:49;99286.81;;;9.83;85.97
70544;BME280;58097;48.364;-1.224;2023-03-16T01:52:22;99283.16;;;9.83;85.50
70544;BME280;58097;48.364;-1.224;2023-03-16T01:54:59;99276.97;;;9.81;85.53
70544;BME280;58097;48.364;-1.224;2023-03-16T01:57:29;99273.03;;;9.83;85.47
70544;BME280;58097;48.364;-1.224;2023-03-16T02:00:11;99271.13;;;9.84;84.85
70544;BME280;58097;48.364;-1.224;2023-03-16T02:02:45;99271.28;;;9.82;85.11
70544;BME280;58097;48.364;-1.224;2023-03-16T02:08:07;99258.50;;;9.81;85.30
70544;BME280;58097;48.364;-1.224;2023-03-16T02:10:34;99259.53;;;9.80;85.65
70544;BME280;58097;48.364;-1.224;2023-03-16T02:13:00;99254.56;;;9.84;85.88
70544;BME280;58097;48.364;-1.224;2023-03-16T02:15:25;99242.66;;;9.83;86.52
70544;BME280;58097;48.364;-1.224;2023-03-16T02:17:51;99236.97;;;9.85;86.05
70544;BME280;58097;48.364;-1.224;2023-03-16T02:22:49;99223.88;;;9.87;86.19
70544;BME280;58097;48.364;-1.224;2023-03-16T02:25:22;99224.91;;;9.86;86.62
70544;BME280;58097;48.364;-1.224;2023-03-16T02:28:04;99223.34;;;9.83;86.72
70544;BME280;58097;48.364;-1.224;2023-03-16T02:30:33;99210.03;;;9.79;86.56
70544;BME280;58097;48.364;-1.224;2023-03-16T02:32:58;99206.09;;;9.73;85.67
70544;BME280;58097;48.364;-1.224;2023-03-16T02:35:24;99206.25;;;9.72;86.08
70544;BME280;58097;48.364;-1.224;2023-03-16T02:37:50;99204.53;;;9.71;87.20
70544;BME280;58097;48.364;-1.224;2023-03-16T02:40:29;99207.66;;;9.68;87.17
70544;BME280;58097;48.364;-1.224;2023-03-16T02:45:30;99205.91;;;9.75;86.13
70544;BME280;58097;48.364;-1.224;2023-03-16T02:48:00;99208.84;;;9.73;86.77
70544;BME280;58097;48.364;-1.224;2023-03-16T02:50:27;99196.44;;;9.77;87.03
70544;BME280;58097;48.364;-1.224;2023-03-16T02:52:53;99194.19;;;9.73;86.74
70544;BME280;58097;48.364;-1.224;2023-03-16T02:55:18;99175.56;;;9.75;86.69
70544;BME280;58097;48.364;-1.224;2023-03-16T02:57:46;99168.34;;;9.66;87.56
70544;BME280;58097;48.364;-1.224;2023-03-16T03:00:11;99165.59;;;9.66;87.15
70544;BME280;58097;48.364;-1.224;2023-03-16T03:02:42;99169.56;;;9.63;87.12
70544;BME280;58097;48.364;-1.224;2023-03-16T03:05:08;99158.34;;;9.56;87.34
70544;BME280;58097;48.364;-1.224;2023-03-16T03:07:33;99169.56;;;9.55;87.37
70544;BME280;58097;48.364;-1.224;2023-03-16T03:09:58;99167.81;;;9.54;87.30
70544;BME280;58097;48.364;-1.224;2023-03-16T03:12:27;99167.97;;;9.52;87.27
70544;BME280;58097;48.364;-1.224;2023-03-16T03:14:52;99163.84;;;9.48;87.25
70544;BME280;58097;48.364;-1.224;2023-03-16T03:17:17;99164.19;;;9.45;87.25
70544;BME280;58097;48.364;-1.224;2023-03-16T03:19:43;99157.31;;;9.41;87.18
70544;BME280;58097;48.364;-1.224;2023-03-16T03:22:08;99155.59;;;9.40;87.21
70544;BME280;58097;48.364;-1.224;2023-03-16T03:24:34;99151.09;;;9.39;87.05
70544;BME280;58097;48.364;-1.224;2023-03-16T03:26:59;99153.00;;;9.39;86.66
70544;BME280;58097;48.364;-1.224;2023-03-16T03:29:28;99150.25;;;9.39;87.08
70544;BME280;58097;48.364;-1.224;2023-03-16T03:32:00;99130.09;;;9.38;87.57
70544;BME280;58097;48.364;-1.224;2023-03-16T03:34:26;99130.09;;;9.38;87.61
70544;BME280;58097;48.364;-1.224;2023-03-16T03:36:52;99130.78;;;9.40;87.37
70544;BME280;58097;48.364;-1.224;2023-03-16T03:39:17;99130.59;;;9.42;87.20
70544;BME280;58097;48.364;-1.224;2023-03-16T03:41:43;99127.31;;;9.38;87.32
70544;BME280;58097;48.364;-1.224;2023-03-16T03:44:08;99117.00;;;9.32;87.27
70544;BME280;58097;48.364;-1.224;2023-03-16T03:46:33;99126.81;;;9.35;86.93
70544;BME280;58097;48.364;-1.224;2023-03-16T03:48:59;99118.19;;;9.29;87.02
70544;BME280;58097;48.364;-1.224;2023-03-16T03:51:28;99118.38;;;9.28;86.57
70544;BME280;58097;48.364;-1.224;2023-03-16T03:53:53;99121.44;;;9.25;86.74
70544;BME280;58097;48.364;-1.224;2023-03-16T03:56:19;99122.84;;;9.21;86.85
70544;BME280;58097;48.364;-1.224;2023-03-16T03:58:44;99120.41;;;9.18;86.67
70544;BME280;58097;48.364;-1.224;2023-03-16T04:01:10;99130.75;;;9.16;86.50
70544;BME280;58097;48.364;-1.224;2023-03-16T04:03:35;99116.13;;;9.15;86.07
70544;BME280;58097;48.364;-1.224;2023-03-16T04:06:00;99116.28;;;9.14;85.70
70544;BME280;58097;48.364;-1.224;2023-03-16T04:08:26;99116.13;;;9.07;86.09
70544;BME280;58097;48.364;-1.224;2023-03-16T04:10:51;99104.75;;;9.02;86.14
70544;BME280;58097;48.364;-1.224;2023-03-16T04:13:16;99104.59;;;9.04;86.20
70544;BME280;58097;48.364;-1.224;2023-03-16T04:15:42;99105.63;;;9.03;85.76
70544;BME280;58097;48.364;-1.224;2023-03-16T04:18:11;99105.63;;;9.03;85.57
70544;BME280;58097;48.364;-1.224;2023-03-16T04:20:37;99102.84;;;9.03;85.28
70544;BME280;58097;48.364;-1.224;2023-03-16T04:23:02;99094.72;;;8.93;85.64
70544;BME280;58097;48.364;-1.224;2023-03-16T04:25:29;99100.25;;;8.85;85.71
70544;BME280;58097;48.364;-1.224;2023-03-16T04:27:54;99084.22;;;8.80;85.51
70544;BME280;58097;48.364;-1.224;2023-03-16T04:30:20;99094.72;;;8.77;85.65
70544;BME280;58097;48.364;-1.224;2023-03-16T04:32:47;99095.59;;;8.77;85.79
70544;BME280;58097;48.364;-1.224;2023-03-16T04:35:13;99093.34;;;8.81;85.54
70544;BME280;58097;48.364;-1.224;2023-03-16T04:37:39;99082.34;;;8.81;85.52
70544;BME280;58097;48.364;-1.224;2023-03-16T04:40:06;99078.72;;;8.80;85.56
70544;BME280;58097;48.364;-1.224;2023-03-16T04:42:36;99085.78;;;8.83;85.77
70544;BME280;58097;48.364;-1.224;2023-03-16T04:45:02;99085.78;;;8.83;85.64
70544;BME280;58097;48.364;-1.224;2023-03-16T04:47:27;99083.19;;;8.81;85.42
70544;BME280;58097;48.364;-1.224;2023-03-16T04:49:54;99084.06;;;8.82;85.12
70544;BME280;58097;48.364;-1.224;2023-03-16T04:52:20;99087.84;;;8.81;84.64
70544;BME280;58097;48.364;-1.224;2023-03-16T04:54:45;99084.56;;;8.77;84.90
70544;BME280;58097;48.364;-1.224;2023-03-16T04:57:10;99087.50;;;8.76;84.88
70544;BME280;58097;48.364;-1.224;2023-03-16T04:59:36;99074.25;;;8.79;85.29
70544;BME280;58097;48.364;-1.224;2023-03-16T05:02:01;99068.38;;;8.82;85.04
70544;BME280;58097;48.364;-1.224;2023-03-16T05:04:26;99077.34;;;8.84;85.14
70544;BME280;58097;48.364;-1.224;2023-03-16T05:06:52;99070.97;;;8.84;85.09
70544;BME280;58097;48.364;-1.224;2023-03-16T05:09:17;99064.06;;;8.88;85.19
70544;BME280;58097;48.364;-1.224;2023-03-16T05:11:44;99061.66;;;8.85;84.94
70544;BME280;58097;48.364;-1.224;2023-03-16T05:14:10;99061.50;;;8.86;84.67
70544;BME280;58097;48.364;-1.224;2023-03-16T05:16:35;99053.41;;;8.85;84.16
70544;BME280;58097;48.364;-1.224;2023-03-16T05:19:01;99041.19;;;8.79;84.36
70544;BME280;58097;48.364;-1.224;2023-03-16T05:21:26;99048.94;;;8.84;84.28
70544;BME280;58097;48.364;-1.224;2023-03-16T05:23:52;99039.63;;;8.85;84.15
70544;BME280;58097;48.364;-1.224;2023-03-16T05:26:17;99036.00;;;8.84;84.21
70544;BME280;58097;48.364;-1.224;2023-03-16T05:28:44;99037.03;;;8.83;84.12
70544;BME280;58097;48.364;-1.224;2023-03-16T05:31:10;99044.28;;;8.84;84.03
70544;BME280;58097;48.364;-1.224;2023-03-16T05:33:35;99047.72;;;8.86;83.89
70544;BME280;58097;48.364;-1.224;2023-03-16T05:36:01;99042.91;;;8.88;83.78
70544;BME280;58097;48.364;-1.224;2023-03-16T05:38:27;99043.25;;;8.85;83.81
70544;BME280;58097;48.364;-1.224;2023-03-16T05:40:53;99041.53;;;8.84;83.44
70544;BME280;58097;48.364;-1.224;2023-03-16T05:43:19;99043.94;;;8.87;83.66
70544;BME280;58097;48.364;-1.224;2023-03-16T05:45:46;99046.50;;;8.89;83.33
70544;BME280;58097;48.364;-1.224;2023-03-16T05:48:13;99049.78;;;8.84;83.38
70544;BME280;58097;48.364;-1.224;2023-03-16T05:50:40;99063.56;;;8.84;83.33
70544;BME280;58097;48.364;-1.224;2023-03-16T05:53:05;99059.09;;;8.83;83.11
70544;BME280;58097;48.364;-1.224;2023-03-16T05:55:31;99058.41;;;8.81;83.25
70544;BME280;58097;48.364;-1.224;2023-03-16T05:57:56;99053.41;;;8.77;82.99
70544;BME280;58097;48.364;-1.224;2023-03-16T06:00:22;99054.25;;;8.77;83.02
70544;BME280;58097;48.364;-1.224;2023-03-16T06:02:50;99050.13;;;8.73;83.02
70544;BME280;58097;48.364;-1.224;2023-03-16T06:05:17;99045.66;;;8.72;83.12
70544;BME280;58097;48.364;-1.224;2023-03-16T06:07:44;99049.97;;;8.75;83.00
70544;BME280;58097;48.364;-1.224;2023-03-16T06:10:10;99042.72;;;8.74;82.97
70544;BME280;58097;48.364;-1.224;2023-03-16T06:12:36;99036.88;;;8.68;82.93
70544;BME280;58097;48.364;-1.224;2023-03-16T06:15:02;99047.19;;;8.66;82.96
70544;BME280;58097;48.364;-1.224;2023-03-16T06:17:28;99038.06;;;8.58;83.06
70544;BME280;58097;48.364;-1.224;2023-03-16T06:19:53;99030.13;;;8.55;83.09
70544;BME280;58097;48.364;-1.224;2023-03-16T06:22:18;99022.03;;;8.53;83.05
70544;BME280;58097;48.364;-1.224;2023-03-16T06:24:44;99018.44;;;8.53;82.73
70544;BME280;58097;48.364;-1.224;2023-03-16T06:27:09;99015.31;;;8.48;82.74
70544;BME280;58097;48.364;-1.224;2023-03-16T06:29:35;99023.59;;;8.48;82.90
70544;BME280;58097;48.364;-1.224;2023-03-16T06:32:00;99023.59;;;8.48;82.85
70544;BME280;58097;48.364;-1.224;2023-03-16T06:34:26;99026.69;;;8.45;83.00
70544;BME280;58097;48.364;-1.224;2023-03-16T06:36:51;99022.03;;;8.45;82.96
70544;BME280;58097;48.364;-1.224;2023-03-16T06:39:17;99023.94;;;8.45;82.79
70544;BME280;58097;48.364;-1.224;2023-03-16T06:41:42;99017.56;;;8.44;82.81
70544;BME280;58097;48.364;-1.224;2023-03-16T06:44:08;99016.88;;;8.42;82.77
70544;BME280;58097;48.364;-1.224;2023-03-16T06:46:34;99015.84;;;8.43;82.59
70544;BME280;58097;48.364;-1.224;2023-03-16T06:48:59;99014.97;;;8.43;82.86
70544;BME280;58097;48.364;-1.224;2023-03-16T06:51:26;99020.50;;;8.43;82.33
70544;BME280;58097;48.364;-1.224;2023-03-16T06:53:51;99015.16;;;8.41;82.46
70544;BME280;58097;48.364;-1.224;2023-03-16T06:56:16;99013.44;;;8.40;82.38
70544;BME280;58097;48.364;-1.224;2023-03-16T06:58:42;99013.75;;;8.37;82.44
70544;BME280;58097;48.364;-1.224;2023-03-16T07:01:07;99012.50;;;8.31;82.60
70544;BME280;58097;48.364;-1.224;2023-03-16T07:03:33;99012.19;;;8.34;82.69
70544;BME280;58097;48.364;-1.224;2023-03-16T07:05:58;99010.13;;;8.36;82.72
70544;BME280;58097;48.364;-1.224;2023-03-16T07:08:23;99019.09;;;8.38;82.78
70544;BME280;58097;48.364;-1.224;2023-03-16T07:10:50;99017.03;;;8.41;82.89
70544;BME280;58097;48.364;-1.224;2023-03-16T07:13:16;99026.84;;;8.43;82.79
70544;BME280;58097;48.364;-1.224;2023-03-16T07:15:41;99009.97;;;8.38;82.95
70544;BME280;58097;48.364;-1.224;2023-03-16T07:18:08;99023.88;;;8.36;82.99
70544;BME280;58097;48.364;-1.224;2023-03-16T07:20:34;99015.16;;;8.41;82.83
70544;BME280;58097;48.364;-1.224;2023-03-16T07:22:59;99027.38;;;8.47;82.81
70544;BME280;58097;48.364;-1.224;2023-03-16T07:25:24;99021.88;;;8.47;82.53
70544;BME280;58097;48.364;-1.224;2023-03-16T07:27:50;99028.94;;;8.49;82.53
70544;BME280;58097;48.364;-1.224;2023-03-16T07:30:15;99021.69;;;8.56;82.71
70544;BME280;58097;48.364;-1.224;2023-03-16T07:32:41;99026.72;;;8.69;82.64
70544;BME280;58097;48.364;-1.224;2023-03-16T07:35:08;99025.34;;;8.81;82.53
70544;BME280;58097;48.364;-1.224;2023-03-16T07:37:34;99023.78;;;8.95;82.35
70544;BME280;58097;48.364;-1.224;2023-03-16T07:40:01;99020.69;;;9.06;81.96
70544;BME280;58097;48.364;-1.224;2023-03-16T07:42:29;99031.69;;;9.30;81.95
70544;BME280;58097;48.364;-1.224;2023-03-16T07:44:54;99035.44;;;9.46;81.48
70544;BME280;58097;48.364;-1.224;2023-03-16T07:47:20;99031.97;;;9.52;80.68
70544;BME280;58097;48.364;-1.224;2023-03-16T07:49:45;99031.31;;;9.58;80.22
70544;BME280;58097;48.364;-1.224;2023-03-16T07:52:11;99033.00;;;9.67;80.06
70544;BME280;58097;48.364;-1.224;2023-03-16T07:54:39;99028.44;;;9.82;80.21
70544;BME280;58097;48.364;-1.224;2023-03-16T07:57:05;99031.00;;;9.92;79.92
70544;BME280;58097;48.364;-1.224;2023-03-16T07:59:30;99028.34;;;10.07;79.79
70544;BME280;58097;48.364;-1.224;2023-03-16T08:01:56;99028.81;;;10.18;79.46
70544;BME280;58097;48.364;-1.224;2023-03-16T08:04:22;99028.94;;;10.33;79.33
70544;BME280;58097;48.364;-1.224;2023-03-16T08:06:47;99027.31;;;10.47;79.23
70544;BME280;58097;48.364;-1.224;2023-03-16T08:09:13;99026.72;;;10.60;79.19
70544;BME280;58097;48.364;-1.224;2023-03-16T08:11:39;99015.75;;;10.74;79.33
70544;BME280;58097;48.364;-1.224;2023-03-16T08:14:05;99024.81;;;10.83;78.68
70544;BME280;58097;48.364;-1.224;2023-03-16T08:16:31;99014.19;;;10.95;78.15
70544;BME280;58097;48.364;-1.224;2023-03-16T08:18:56;99011.09;;;11.12;78.20
70544;BME280;58097;48.364;-1.224;2023-03-16T08:21:22;99018.94;;;11.24;77.52
70544;BME280;58097;48.364;-1.224;2023-03-16T08:23:48;99015.06;;;11.33;75.96
70544;BME280;58097;48.364;-1.224;2023-03-16T08:26:18;99016.41;;;11.52;78.19
70544;BME280;58097;48.364;-1.224;2023-03-16T08:28:45;99004.97;;;11.69;78.07
70544;BME280;58097;48.364;-1.224;2023-03-16T08:31:12;99009.31;;;11.87;78.04
70544;BME280;58097;48.364;-1.224;2023-03-16T08:33:42;99015.41;;;11.97;76.75
70544;BME280;58097;48.364;-1.224;2023-03-16T08:36:10;99014.44;;;12.04;76.19
70544;BME280;58097;48.364;-1.224;2023-03-16T08:38:37;99000.19;;;12.22;77.55
70544;BME280;58097;48.364;-1.224;2023-03-16T08:41:04;99000.25;;;12.44;76.58
70544;BME280;58097;48.364;-1.224;2023-03-16T08:43:30;98995.91;;;12.56;75.34
70544;BME280;58097;48.364;-1.224;2023-03-16T08:45:56;98991.25;;;12.78;75.44
70544;BME280;58097;48.364;-1.224;2023-03-16T08:48:21;98991.41;;;12.97;75.11
70544;BME280;58097;48.364;-1.224;2023-03-16T08:50:47;98988.78;;;12.89;70.89
70544;BME280;58097;48.364;-1.224;2023-03-16T08:53:14;98985.22;;;12.95;73.61
70544;BME280;58097;48.364;-1.224;2023-03-16T08:55:40;98988.97;;;13.09;71.72
70544;BME280;58097;48.364;-1.224;2023-03-16T08:58:07;98981.31;;;13.11;71.39
70544;BME280;58097;48.364;-1.224;2023-03-16T09:00:33;98985.09;;;13.03;70.16
70544;BME280;58097;48.364;-1.224;2023-03-16T09:02:59;98994.78;;;13.14;72.23
70544;BME280;58097;48.364;-1.224;2023-03-16T09:05:27;98991.16;;;13.14;70.94
70544;BME280;58097;48.364;-1.224;2023-03-16T09:07:52;98997.09;;;13.11;70.14
70544;BME280;58097;48.364;-1.224;2023-03-16T09:10:18;98991.56;;;13.11;70.74
70544;BME280;58097;48.364;-1.224;2023-03-16T09:12:48;98992.81;;;13.08;71.42
70544;BME280;58097;48.364;-1.224;2023-03-16T09:15:13;98988.66;;;13.19;71.95
70544;BME280;58097;48.364;-1.224;2023-03-16T09:17:39;98990.44;;;13.26;71.90
70544;BME280;58097;48.364;-1.224;2023-03-16T09:20:07;98989.66;;;13.32;71.28
70544;BME280;58097;48.364;-1.224;2023-03-16T09:22:35;98984.69;;;13.28;71.31
70544;BME280;58097;48.364;-1.224;2023-03-16T09:25:02;98982.38;;;13.10;70.61
70544;BME280;58097;48.364;-1.224;2023-03-16T09:27:27;98976.44;;;12.92;70.21
70544;BME280;58097;48.364;-1.224;2023-03-16T09:29:53;98980.06;;;12.92;71.55
70544;BME280;58097;48.364;-1.224;2023-03-16T09:32:20;98977.25;;;12.86;70.85
70544;BME280;58097;48.364;-1.224;2023-03-16T09:34:46;98967.72;;;12.95;72.23
70544;BME280;58097;48.364;-1.224;2023-03-16T09:37:12;98970.94;;;12.98;71.63
70544;BME280;58097;48.364;-1.224;2023-03-16T09:39:37;98962.72;;;13.05;71.67
70544;BME280;58097;48.364;-1.224;2023-03-16T09:47:46;98952.41;;;13.20;71.29
70544;BME280;58097;48.364;-1.224;2023-03-16T09:50:27;98960.91;;;13.19;71.99
70544;BME280;58097;48.364;-1.224;2023-03-16T09:53:02;98956.28;;;13.26;71.61
70544;BME280;58097;48.364;-1.224;2023-03-16T09:55:35;98955.09;;;13.35;72.56
70544;BME280;58097;48.364;-1.224;2023-03-16T09:58:04;98947.69;;;13.49;73.36
70544;BME280;58097;48.364;-1.224;2023-03-16T10:05:57;98934.88;;;13.48;70.30
70544;BME280;58097;48.364;-1.224;2023-03-16T10:08:26;98941.38;;;13.61;71.90
70544;BME280;58097;48.364;-1.224;2023-03-16T10:11:10;98939.31;;;13.77;72.44
70544;BME280;58097;48.364;-1.224;2023-03-16T10:14:03;98926.94;;;13.79;70.33
70544;BME280;58097;48.364;-1.224;2023-03-16T10:16:37;98930.88;;;13.91;70.23
70544;BME280;58097;48.364;-1.224;2023-03-16T10:19:35;98920.41;;;13.93;69.54
70544;BME280;58097;48.364;-1.224;2023-03-16T10:22:14;98910.78;;;13.89;69.62
70544;BME280;58097;48.364;-1.224;2023-03-16T10:27:18;98910.38;;;13.92;69.51
70544;BME280;58097;48.364;-1.224;2023-03-16T10:29:46;98907.81;;;13.98;68.52
70544;BME280;58097;48.364;-1.224;2023-03-16T10:32:15;98901.00;;;14.00;70.26
70544;BME280;58097;48.364;-1.224;2023-03-16T10:34:51;98903.78;;;14.00;68.99
70544;BME280;58097;48.364;-1.224;2023-03-16T10:37:18;98898.34;;;13.85;67.85
70544;BME280;58097;48.364;-1.224;2023-03-16T10:39:47;98890.84;;;13.79;69.13
70544;BME280;58097;48.364;-1.224;2023-03-16T10:42:15;98897.25;;;13.73;69.14
70544;BME280;58097;48.364;-1.224;2023-03-16T10:44:41;98895.53;;;13.72;69.63
70544;BME280;58097;48.364;-1.224;2023-03-16T10:47:07;98889.50;;;13.62;68.95
70544;BME280;58097;48.364;-1.224;2023-03-16T10:49:41;98891.22;;;13.63;69.64
70544;BME280;58097;48.364;-1.224;2023-03-16T10:52:18;98892.75;;;13.72;70.95
70544;BME280;58097;48.364;-1.224;2023-03-16T10:54:59;98886.31;;;13.65;68.90
70544;BME280;58097;48.364;-1.224;2023-03-16T10:57:30;98880.69;;;13.58;69.83
70544;BME280;58097;48.364;-1.224;2023-03-16T11:00:03;98872.75;;;13.49;68.70
70544;BME280;58097;48.364;-1.224;2023-03-16T11:02:32;98873.84;;;13.54;69.65
70544;BME280;58097;48.364;-1.224;2023-03-16T11:05:09;98872.84;;;13.62;70.59
70544;BME280;58097;48.364;-1.224;2023-03-16T11:07:35;98873.44;;;13.57;69.71
70544;BME280;58097;48.364;-1.224;2023-03-16T11:10:16;98871.28;;;13.53;69.57
70544;BME280;58097;48.364;-1.224;2023-03-16T11:12:49;98864.72;;;13.60;70.33
70544;BME280;58097;48.364;-1.224;2023-03-16T11:15:15;98868.34;;;13.61;69.55
70544;BME280;58097;48.364;-1.224;2023-03-16T11:17:48;98856.78;;;13.57;69.19
70544;BME280;58097;48.364;-1.224;2023-03-16T11:20:26;98854.63;;;13.53;70.01
70544;BME280;58097;48.364;-1.224;2023-03-16T11:22:53;98852.50;;;13.55;70.03
70544;BME280;58097;48.364;-1.224;2023-03-16T11:25:31;98853.63;;;13.60;70.38
70544;BME280;58097;48.364;-1.224;2023-03-16T11:28:08;98842.53;;;13.67;70.51
70544;BME280;58097;48.364;-1.224;2023-03-16T11:33:26;98826.34;;;13.77;70.25
70544;BME280;58097;48.364;-1.224;2023-03-16T11:38:39;98818.28;;;13.89;70.59
70544;BME280;58097;48.364;-1.224;2023-03-16T11:41:15;98811.47;;;14.11;70.91
70544;BME280;58097;48.364;-1.224;2023-03-16T11:43:52;98813.66;;;14.22;69.47
70544;BME280;58097;48.364;-1.224;2023-03-16T11:51:54;98800.84;;;14.87;67.44
70544;BME280;58097;48.364;-1.224;2023-03-16T12:00:26;98803.03;;;14.79;65.45
70544;BME280;58097;48.364;-1.224;2023-03-16T12:11:26;98791.44;;;14.88;66.36
70544;BME280;58097;48.364;-1.224;2023-03-16T12:16:34;98781.13;;;15.02;65.00
70544;BME280;58097;48.364;-1.224;2023-03-16T12:19:11;98786.69;;;15.02;64.65
70544;BME280;58097;48.364;-1.224;2023-03-16T12:21:44;98781.13;;;15.15;66.05
70544;BME280;58097;48.364;-1.224;2023-03-16T12:24:21;98784.50;;;15.24;65.12
70544;BME280;58097;48.364;-1.224;2023-03-16T12:26:50;98781.69;;;15.31;65.16
70544;BME280;58097;48.364;-1.224;2023-03-16T12:40:58;98773.94;;;15.97;60.95
70544;BME280;58097;48.364;-1.224;2023-03-16T12:48:52;98774.34;;;16.32;60.65
70544;BME280;58097;48.364;-1.224;2023-03-16T12:51:18;98765.75;;;16.34;61.44
70544;BME280;58097;48.364;-1.224;2023-03-16T12:56:21;98767.88;;;16.38;62.11
70544;BME280;58097;48.364;-1.224;2023-03-16T12:58:56;98756.81;;;16.25;60.18
70544;BME280;58097;48.364;-1.224;2023-03-16T13:01:30;98756.81;;;16.25;61.14
70544;BME280;58097;48.364;-1.224;2023-03-16T13:06:42;98751.25;;;15.94;61.41
70544;BME280;58097;48.364;-1.224;2023-03-16T13:09:10;98749.31;;;15.94;62.59
70544;BME280;58097;48.364;-1.224;2023-03-16T13:11:43;98745.41;;;16.02;63.34
70544;BME280;58097;48.364;-1.224;2023-03-16T13:14:16;98752.22;;;16.06;63.12
70544;BME280;58097;48.364;-1.224;2023-03-16T13:17:02;98756.69;;;16.14;63.54
70544;BME280;58097;48.364;-1.224;2023-03-16T13:19:29;98758.78;;;16.18;62.80
70544;BME280;58097;48.364;-1.224;2023-03-16T13:22:16;98750.66;;;16.17;62.64
70544;BME280;58097;48.364;-1.224;2023-03-16T13:24:50;98739.09;;;16.13;61.42
70544;BME280;58097;48.364;-1.224;2023-03-16T13:30:01;98735.59;;;16.24;64.01
70544;BME280;58097;48.364;-1.224;2023-03-16T13:32:32;98736.22;;;16.26;63.23
70544;BME280;58097;48.364;-1.224;2023-03-16T13:35:00;98736.00;;;16.28;63.66
70544;BME280;58097;48.364;-1.224;2023-03-16T13:37:28;98733.22;;;16.28;62.53
70544;BME280;58097;48.364;-1.224;2023-03-16T13:39:58;98730.03;;;16.24;63.16
70544;BME280;58097;48.364;-1.224;2023-03-16T13:42:28;98729.19;;;16.24;62.72
70544;BME280;58097;48.364;-1.224;2023-03-16T13:44:58;98733.63;;;16.31;63.21
70544;BME280;58097;48.364;-1.224;2023-03-16T13:47:31;98726.03;;;16.38;63.46
70544;BME280;58097;48.364;-1.224;2023-03-16T13:49:58;98729.44;;;16.40;63.97
70544;BME280;58097;48.364;-1.224;2023-03-16T13:54:54;98727.28;;;16.42;64.01
70544;BME280;58097;48.364;-1.224;2023-03-16T13:57:23;98723.94;;;16.34;62.26
70544;BME280;58097;48.364;-1.224;2023-03-16T13:59:50;98709.44;;;16.25;62.70
70544;BME280;58097;48.364;-1.224;2023-03-16T14:02:19;98712.91;;;16.21;61.50
70544;BME280;58097;48.364;-1.224;2023-03-16T14:04:47;98705.13;;;16.29;63.32
70544;BME280;58097;48.364;-1.224;2023-03-16T14:07:18;98708.84;;;16.17;62.11
70544;BME280;58097;48.364;-1.224;2023-03-16T14:09:44;98708.97;;;16.28;62.87
70544;BME280;58097;48.364;-1.224;2023-03-16T14:12:15;98717.22;;;16.41;61.74
70544;BME280;58097;48.364;-1.224;2023-03-16T14:14:45;98715.63;;;16.52;61.85
70544;BME280;58097;48.364;-1.224;2023-03-16T14:17:12;98712.56;;;16.60;62.87